Time,TemperatureF,DewpointF,PressureIn,WindDirection,WindDirectionDegrees,WindSpeedMPH,WindSpeedGustMPH,Humidity,HourlyPrecipIn,Conditions,Clouds,dailyrainin,SoftwareType,DateUTC
2013-10-20 00:00:00,51.7,46.1,29.75,SSE,155,2.0,5.0,81,0.00,,,0.06,Wunderground v.1.15,2013-10-20 04:00:00,
2013-10-20 00:01:00,51.7,45.7,29.75,SSE,155,2.0,8.0,80,0.00,,,0.00,Wunderground v.1.15,2013-10-20 04:01:00,
2013-10-20 00:02:00,51.7,46.1,29.75,SSE,155,2.0,8.0,81,0.00,,,0.00,Wunderground v.1.15,2013-10-20 04:02:00,
2013-10-20 00:04:00,51.7,46.4,29.75,SSE,155,1.0,8.0,82,0.00,,,0.00,Wunderground v.1.15,2013-10-20 04:04:00,
2013-10-20 00:06:00,51.7,46.7,29.75,SSE,155,1.0,8.0,83,0.00,,,0.00,Wunderground v.1.15,2013-10-20 04:06:00,
2013-10-20 00:11:00,51.7,46.4,29.75,SW,219,1.0,2.0,82,0.00,,,0.00,Wunderground v.1.15,2013-10-20 04:11:00,
2013-10-20 00:12:00,51.9,45.6,29.75,SSE,158,2.0,5.0,79,0.00,,,0.00,Wunderground v.1.15,2013-10-20 04:12:00,
2013-10-20 00:19:00,52.0,45.4,29.75,ESE,121,3.0,7.0,78,0.00,,,0.00,Wunderground v.1.15,2013-10-20 04:19:00,
2013-10-20 00:24:00,52.2,45.2,29.75,East,83,3.0,5.0,77,0.00,,,0.00,Wunderground v.1.15,2013-10-20 04:24:00,
2013-10-20 00:29:00,52.0,46.3,29.75,SSW,202,3.0,6.0,81,0.00,,,0.00,Wunderground v.1.15,2013-10-20 04:29:00,
2013-10-20 00:34:00,50.2,50.2,29.75,South,181,3.0,7.0,100,0.00,,,0.01,Wunderground v.1.15,2013-10-20 04:34:00,
2013-10-20 00:40:00,47.9,47.9,29.75,WSW,258,3.0,3.0,100,1.40,,,0.04,Wunderground v.1.15,2013-10-20 04:40:00,
2013-10-20 00:45:00,47.4,47.4,29.76,South,182,3.0,4.0,100,0.10,,,0.04,Wunderground v.1.15,2013-10-20 04:45:00,
2013-10-20 00:51:00,47.1,47.1,29.76,South,181,0.0,1.0,100,0.05,,,0.04,Wunderground v.1.15,2013-10-20 04:51:00,
2013-10-20 00:56:00,47.4,47.4,29.76,SE,140,0.0,2.0,100,0.04,,,0.04,Wunderground v.1.15,2013-10-20 04:56:00,
2013-10-20 01:02:00,47.4,47.4,29.75,SE,127,1.0,14.0,100,0.00,,,0.04,Wunderground v.1.15,2013-10-20 05:02:00,
2013-10-20 01:09:00,47.6,47.6,29.75,SE,128,0.0,14.0,100,0.00,,,0.04,Wunderground v.1.15,2013-10-20 05:09:00,
2013-10-20 01:14:00,47.6,47.6,29.75,SE,124,0.0,0.0,100,0.00,,,0.04,Wunderground v.1.15,2013-10-20 05:14:00,
2013-10-20 01:19:00,47.6,47.6,29.75,SE,126,0.0,0.0,100,0.00,,,0.04,Wunderground v.1.15,2013-10-20 05:19:00,
2013-10-20 01:25:00,47.9,47.9,29.75,SE,126,0.0,0.0,100,0.00,,,0.04,Wunderground v.1.15,2013-10-20 05:25:00,
2013-10-20 01:30:00,48.0,48.0,29.74,SE,128,0.0,1.0,100,0.00,,,0.04,Wunderground v.1.15,2013-10-20 05:30:00,
2013-10-20 01:36:00,48.2,48.2,29.74,SE,127,0.0,1.0,100,0.00,,,0.04,Wunderground v.1.15,2013-10-20 05:36:00,
2013-10-20 01:41:00,48.2,48.2,29.74,SE,128,0.0,0.0,100,0.00,,,0.04,Wunderground v.1.15,2013-10-20 05:41:00,
2013-10-20 01:47:00,48.3,48.3,29.74,SE,130,0.0,0.0,100,0.00,,,0.04,Wunderground v.1.15,2013-10-20 05:47:00,
2013-10-20 01:52:00,48.3,48.3,29.74,SE,130,0.0,0.0,100,0.00,,,0.04,Wunderground v.1.15,2013-10-20 05:52:00,
2013-10-20 01:59:00,48.5,48.5,29.74,SE,130,0.0,0.0,100,0.00,,,0.04,Wunderground v.1.15,2013-10-20 05:59:00,
2013-10-20 02:04:00,48.6,48.6,29.74,SE,127,0.0,16.0,100,0.00,,,0.04,Wunderground v.1.15,2013-10-20 06:04:00,
2013-10-20 02:10:00,48.8,48.8,29.74,ESE,123,0.0,16.0,100,0.00,,,0.04,Wunderground v.1.15,2013-10-20 06:10:00,
2013-10-20 02:15:00,49.1,49.1,29.74,ESE,114,0.0,0.0,100,0.00,,,0.04,Wunderground v.1.15,2013-10-20 06:15:00,
2013-10-20 02:21:00,49.1,49.1,29.74,ESE,114,0.0,0.0,100,0.00,,,0.04,Wunderground v.1.15,2013-10-20 06:21:00,
2013-10-20 02:27:00,-999.9,-99.9,29.74,North,32767,-999.0,0.0,255,-99.99,,,0.04,Wunderground v.1.15,2013-10-20 06:27:00,
2013-10-20 02:33:00,-999.9,-99.9,29.74,North,32767,-999.0,0.0,255,-99.99,,,0.04,Wunderground v.1.15,2013-10-20 06:33:00,
2013-10-20 02:39:00,-999.9,-99.9,29.74,North,32767,-999.0,0.0,255,-99.99,,,0.04,Wunderground v.1.15,2013-10-20 06:39:00,
2013-10-20 02:44:00,-999.9,-99.9,29.74,North,32767,-999.0,0.0,255,-99.99,,,0.04,Wunderground v.1.15,2013-10-20 06:44:00,
2013-10-20 02:49:00,-999.9,-99.9,29.74,North,32767,-999.0,0.0,255,-99.99,,,0.04,Wunderground v.1.15,2013-10-20 06:49:00,
2013-10-20 02:54:00,-999.9,-99.9,29.74,North,32767,-999.0,0.0,255,-99.99,,,0.04,Wunderground v.1.15,2013-10-20 06:54:00,
2013-10-20 02:59:00,-999.9,-99.9,29.74,North,32767,-999.0,0.0,255,-99.99,,,0.04,Wunderground v.1.15,2013-10-20 06:59:00,
2013-10-20 03:05:00,-999.9,-99.9,29.74,North,32767,-999.0,2.0,255,-99.99,,,0.04,Wunderground v.1.15,2013-10-20 07:05:00,
2013-10-20 03:11:00,-999.9,-99.9,29.74,North,32767,-999.0,0.0,255,-99.99,,,0.04,Wunderground v.1.15,2013-10-20 07:11:00,
2013-10-20 03:16:00,-999.9,-99.9,29.73,North,32767,-999.0,0.0,255,-99.99,,,0.04,Wunderground v.1.15,2013-10-20 07:16:00,
2013-10-20 03:22:00,-999.9,-99.9,29.73,North,32767,-999.0,0.0,255,-99.99,,,0.04,Wunderground v.1.15,2013-10-20 07:22:00,
2013-10-20 03:27:00,-999.9,-99.9,29.73,North,32767,-999.0,0.0,255,-99.99,,,0.04,Wunderground v.1.15,2013-10-20 07:27:00,
2013-10-20 03:33:00,51.3,41.5,29.73,SSE,164,1.0,1.0,69,0.00,,,0.04,Wunderground v.1.15,2013-10-20 07:33:00,
2013-10-20 03:38:00,51.4,40.0,29.73,South,169,1.0,2.0,65,0.00,,,0.04,Wunderground v.1.15,2013-10-20 07:38:00,
2013-10-20 03:44:00,51.6,39.4,29.73,SE,143,2.0,5.0,63,0.00,,,0.04,Wunderground v.1.15,2013-10-20 07:44:00,
2013-10-20 03:49:00,51.4,40.4,29.74,WSW,248,2.0,5.0,66,0.00,,,0.04,Wunderground v.1.15,2013-10-20 07:49:00,
2013-10-20 03:55:00,51.7,39.5,29.74,SW,232,1.0,3.0,63,0.00,,,0.04,Wunderground v.1.15,2013-10-20 07:55:00,
2013-10-20 04:00:00,51.7,40.7,29.73,SSW,210,1.0,3.0,66,0.00,,,0.04,Wunderground v.1.15,2013-10-20 08:00:00,
2013-10-20 04:06:00,51.7,40.7,29.73,SSW,208,1.0,1.0,66,0.00,,,0.04,Wunderground v.1.15,2013-10-20 08:06:00,
2013-10-20 04:12:00,51.7,41.1,29.73,SSW,208,0.0,0.0,67,0.00,,,0.04,Wunderground v.1.15,2013-10-20 08:12:00,
2013-10-20 04:17:00,51.6,41.4,29.74,SSW,209,0.0,1.0,68,0.00,,,0.04,Wunderground v.1.15,2013-10-20 08:17:00,
2013-10-20 04:23:00,51.3,42.9,29.74,SSW,209,0.0,0.0,73,0.00,,,0.04,Wunderground v.1.15,2013-10-20 08:23:00,
2013-10-20 04:28:00,51.0,43.0,29.74,SSW,209,0.0,0.0,74,0.00,,,0.04,Wunderground v.1.15,2013-10-20 08:28:00,
2013-10-20 04:33:00,50.5,44.2,29.74,SSW,209,0.0,0.0,79,0.00,,,0.04,Wunderground v.1.15,2013-10-20 08:33:00,
2013-10-20 04:39:00,49.8,47.6,29.74,SSW,209,0.0,1.0,92,0.00,,,0.04,Wunderground v.1.15,2013-10-20 08:39:00,
2013-10-20 04:45:00,48.9,48.9,29.74,SSW,209,0.0,0.0,100,0.00,,,0.04,Wunderground v.1.15,2013-10-20 08:45:00,
2013-10-20 04:50:00,48.6,48.6,29.74,SSW,209,0.0,0.0,100,0.00,,,0.04,Wunderground v.1.15,2013-10-20 08:50:00,
2013-10-20 04:56:00,48.3,48.3,29.74,SSW,209,0.0,0.0,100,0.00,,,0.04,Wunderground v.1.15,2013-10-20 08:56:00,
2013-10-20 05:01:00,48.2,48.2,29.74,SSW,209,0.0,0.0,100,0.00,,,0.04,Wunderground v.1.15,2013-10-20 09:01:00,
2013-10-20 05:06:00,47.9,47.9,29.74,SSW,209,0.0,6.0,100,0.00,,,0.04,Wunderground v.1.15,2013-10-20 09:06:00,
2013-10-20 05:12:00,47.9,47.9,29.74,SSW,209,0.0,0.0,100,0.00,,,0.04,Wunderground v.1.15,2013-10-20 09:12:00,
2013-10-20 05:17:00,47.7,47.7,29.74,SSW,209,0.0,0.0,100,0.00,,,0.04,Wunderground v.1.15,2013-10-20 09:17:00,
2013-10-20 05:23:00,47.7,47.7,29.74,SSW,209,0.0,0.0,100,0.00,,,0.04,Wunderground v.1.15,2013-10-20 09:23:00,
2013-10-20 05:28:00,47.6,47.6,29.74,SSW,209,0.0,0.0,100,0.00,,,0.04,Wunderground v.1.15,2013-10-20 09:28:00,
2013-10-20 05:34:00,47.6,47.6,29.74,SSW,209,0.0,0.0,100,0.00,,,0.04,Wunderground v.1.15,2013-10-20 09:34:00,
2013-10-20 05:39:00,47.4,47.4,29.74,SSW,209,0.0,0.0,100,0.00,,,0.04,Wunderground v.1.15,2013-10-20 09:39:00,
2013-10-20 05:44:00,47.4,47.4,29.74,SSW,209,0.0,0.0,100,0.00,,,0.04,Wunderground v.1.15,2013-10-20 09:44:00,
2013-10-20 05:50:00,47.4,47.4,29.75,SSW,209,0.0,0.0,100,0.00,,,0.04,Wunderground v.1.15,2013-10-20 09:50:00,
2013-10-20 05:55:00,47.6,47.6,29.75,SSW,208,0.0,0.0,100,0.00,,,0.04,Wunderground v.1.15,2013-10-20 09:55:00,
2013-10-20 06:01:00,47.6,47.6,29.75,SSW,208,0.0,0.0,100,0.00,,,0.04,Wunderground v.1.15,2013-10-20 10:01:00,
2013-10-20 06:06:00,47.4,47.4,29.75,SSW,208,0.0,3.0,100,0.00,,,0.04,Wunderground v.1.15,2013-10-20 10:06:00,
2013-10-20 06:12:00,47.4,47.4,29.75,SSW,208,0.0,0.0,100,0.00,,,0.04,Wunderground v.1.15,2013-10-20 10:12:00,
2013-10-20 06:18:00,47.4,47.4,29.75,SSW,208,0.0,0.0,100,0.00,,,0.04,Wunderground v.1.15,2013-10-20 10:18:00,
2013-10-20 06:23:00,47.4,47.4,29.75,SSW,208,0.0,0.0,100,0.00,,,0.04,Wunderground v.1.15,2013-10-20 10:23:00,
2013-10-20 06:29:00,47.3,47.3,29.75,SSW,208,0.0,0.0,100,0.00,,,0.04,Wunderground v.1.15,2013-10-20 10:29:00,
2013-10-20 06:34:00,47.3,47.3,29.75,SSW,208,0.0,0.0,100,0.00,,,0.04,Wunderground v.1.15,2013-10-20 10:34:00,
2013-10-20 06:40:00,47.1,47.1,29.75,SSW,208,0.0,0.0,100,0.00,,,0.04,Wunderground v.1.15,2013-10-20 10:40:00,
2013-10-20 06:45:00,47.1,47.1,29.75,SSW,208,0.0,0.0,100,0.00,,,0.04,Wunderground v.1.15,2013-10-20 10:45:00,
2013-10-20 06:51:00,47.1,47.1,29.75,SSW,208,0.0,0.0,100,0.00,,,0.04,Wunderground v.1.15,2013-10-20 10:51:00,
2013-10-20 06:56:00,47.1,47.1,29.75,SSW,208,0.0,0.0,100,0.00,,,0.04,Wunderground v.1.15,2013-10-20 10:56:00,
2013-10-20 07:02:00,47.0,47.0,29.75,SSW,208,0.0,0.0,100,0.00,,,0.04,Wunderground v.1.15,2013-10-20 11:02:00,
2013-10-20 07:08:00,46.8,46.8,29.75,SSW,208,0.0,0.0,100,0.00,,,0.04,Wunderground v.1.15,2013-10-20 11:08:00,
2013-10-20 07:13:00,46.8,46.8,29.75,SSW,208,0.0,0.0,100,0.00,,,0.04,Wunderground v.1.15,2013-10-20 11:13:00,
2013-10-20 07:18:00,46.7,46.7,29.76,SSW,208,0.0,1.0,100,0.00,,,0.04,Wunderground v.1.15,2013-10-20 11:18:00,
2013-10-20 07:24:00,46.5,46.5,29.76,SSW,208,0.0,0.0,100,0.00,,,0.04,Wunderground v.1.15,2013-10-20 11:24:00,
2013-10-20 07:29:00,46.4,46.4,29.76,SSW,206,0.0,0.0,100,0.00,,,0.04,Wunderground v.1.15,2013-10-20 11:29:00,
2013-10-20 07:35:00,46.2,46.2,29.76,SSW,206,0.0,0.0,100,0.00,,,0.04,Wunderground v.1.15,2013-10-20 11:35:00,
2013-10-20 07:40:00,46.1,46.1,29.76,SSW,203,0.0,0.0,100,0.00,,,0.04,Wunderground v.1.15,2013-10-20 11:40:00,
2013-10-20 07:46:00,46.0,46.0,29.76,SSW,200,0.0,0.0,100,0.00,,,0.04,Wunderground v.1.15,2013-10-20 11:46:00,
2013-10-20 07:51:00,45.8,45.8,29.76,SSW,206,0.0,0.0,100,0.00,,,0.04,Wunderground v.1.15,2013-10-20 11:51:00,
2013-10-20 07:57:00,45.7,45.7,29.76,SSW,208,0.0,0.0,100,0.00,,,0.04,Wunderground v.1.15,2013-10-20 11:57:00,
2013-10-20 08:02:00,45.5,45.5,29.77,SSW,208,0.0,0.0,100,0.00,,,0.04,Wunderground v.1.15,2013-10-20 12:02:00,
2013-10-20 08:08:00,45.5,45.5,29.77,SSW,209,0.0,0.0,100,0.00,,,0.04,Wunderground v.1.15,2013-10-20 12:08:00,
2013-10-20 08:14:00,45.4,45.4,29.77,SSW,209,0.0,0.0,100,0.00,,,0.04,Wunderground v.1.15,2013-10-20 12:14:00,
2013-10-20 08:19:00,45.4,45.4,29.78,SSW,209,0.0,0.0,100,0.00,,,0.04,Wunderground v.1.15,2013-10-20 12:19:00,
2013-10-20 08:24:00,45.4,45.4,29.78,SSW,206,0.0,0.0,100,0.00,,,0.04,Wunderground v.1.15,2013-10-20 12:24:00,
2013-10-20 08:30:00,45.4,45.4,29.78,SSW,206,0.0,0.0,100,0.00,,,0.04,Wunderground v.1.15,2013-10-20 12:30:00,
2013-10-20 08:35:00,45.5,45.5,29.78,SSW,206,0.0,0.0,100,0.00,,,0.04,Wunderground v.1.15,2013-10-20 12:35:00,
2013-10-20 08:41:00,45.5,45.5,29.78,SSW,206,0.0,0.0,100,0.00,,,0.04,Wunderground v.1.15,2013-10-20 12:41:00,
2013-10-20 08:46:00,45.5,45.5,29.79,SSW,206,0.0,0.0,100,0.00,,,0.04,Wunderground v.1.15,2013-10-20 12:46:00,
2013-10-20 08:52:00,45.7,45.7,29.79,SSW,206,0.0,0.0,100,0.00,,,0.04,Wunderground v.1.15,2013-10-20 12:52:00,
2013-10-20 08:57:00,45.8,45.8,29.79,SSW,206,0.0,0.0,100,0.00,,,0.04,Wunderground v.1.15,2013-10-20 12:57:00,
2013-10-20 09:02:00,45.8,45.8,29.80,SSW,206,0.0,2.0,100,0.00,,,0.04,Wunderground v.1.15,2013-10-20 13:02:00,
2013-10-20 09:08:00,46.0,46.0,29.80,SSW,206,0.0,2.0,100,0.00,,,0.04,Wunderground v.1.15,2013-10-20 13:08:00,
2013-10-20 09:14:00,46.2,46.2,29.81,SSW,206,0.0,0.0,100,0.00,,,0.04,Wunderground v.1.15,2013-10-20 13:14:00,
2013-10-20 09:19:00,46.2,46.2,29.81,SSW,206,0.0,0.0,100,0.00,,,0.04,Wunderground v.1.15,2013-10-20 13:19:00,
2013-10-20 09:25:00,46.4,46.4,29.81,SSW,208,0.0,0.0,100,0.00,,,0.04,Wunderground v.1.15,2013-10-20 13:25:00,
2013-10-20 09:30:00,46.4,46.4,29.81,SSW,208,0.0,0.0,100,0.00,,,0.04,Wunderground v.1.15,2013-10-20 13:30:00,
2013-10-20 09:35:00,-999.9,-99.9,29.81,North,32767,-999.0,0.0,255,-99.99,,,0.04,Wunderground v.1.15,2013-10-20 13:35:00,
2013-10-20 09:41:00,-999.9,-99.9,29.81,North,32767,-999.0,0.0,255,-99.99,,,0.04,Wunderground v.1.15,2013-10-20 13:41:00,
2013-10-20 09:46:00,-999.9,-99.9,29.81,North,32767,-999.0,0.0,255,-99.99,,,0.04,Wunderground v.1.15,2013-10-20 13:46:00,
2013-10-20 09:51:00,-999.9,-99.9,29.81,North,32767,-999.0,0.0,255,-99.99,,,0.04,Wunderground v.1.15,2013-10-20 13:51:00,
2013-10-20 09:56:00,-999.9,-99.9,29.81,North,32767,-999.0,0.0,255,-99.99,,,0.04,Wunderground v.1.15,2013-10-20 13:56:00,
2013-10-20 10:02:00,-999.9,-99.9,29.81,North,32767,-999.0,4.0,255,-99.99,,,0.04,Wunderground v.1.15,2013-10-20 14:02:00,
2013-10-20 10:07:00,-999.9,-99.9,29.81,North,32767,-999.0,4.0,255,-99.99,,,0.04,Wunderground v.1.15,2013-10-20 14:07:00,
2013-10-20 10:13:00,-999.9,-99.9,29.81,North,32767,-999.0,0.0,255,-99.99,,,0.04,Wunderground v.1.15,2013-10-20 14:13:00,
2013-10-20 10:18:00,-999.9,-99.9,29.81,North,32767,-999.0,0.0,255,-99.99,,,0.04,Wunderground v.1.15,2013-10-20 14:18:00,
2013-10-20 10:24:00,-999.9,-99.9,29.81,North,32767,-999.0,0.0,255,-99.99,,,0.04,Wunderground v.1.15,2013-10-20 14:24:00,
2013-10-20 10:29:00,-999.9,-99.9,29.82,North,32767,-999.0,0.0,255,-99.99,,,0.04,Wunderground v.1.15,2013-10-20 14:29:00,
2013-10-20 10:35:00,-999.9,-99.9,29.82,North,32767,-999.0,0.0,255,-99.99,,,0.04,Wunderground v.1.15,2013-10-20 14:35:00,
2013-10-20 10:40:00,-999.9,-99.9,29.82,North,32767,-999.0,0.0,255,-99.99,,,0.04,Wunderground v.1.15,2013-10-20 14:40:00,
2013-10-20 10:45:00,-999.9,-99.9,29.82,North,32767,-999.0,0.0,255,-99.99,,,0.04,Wunderground v.1.15,2013-10-20 14:45:00,
2013-10-20 10:51:00,-999.9,-99.9,29.82,North,32767,-999.0,0.0,255,-99.99,,,0.04,Wunderground v.1.15,2013-10-20 14:51:00,
2013-10-20 10:56:00,-999.9,-99.9,29.82,North,32767,-999.0,0.0,255,-99.99,,,0.04,Wunderground v.1.15,2013-10-20 14:56:00,
2013-10-20 11:01:00,-999.9,-99.9,29.82,North,32767,-999.0,0.0,255,-99.99,,,0.04,Wunderground v.1.15,2013-10-20 15:01:00,
2013-10-20 11:06:00,-999.9,-99.9,29.82,North,32767,-999.0,0.0,255,-99.99,,,0.04,Wunderground v.1.15,2013-10-20 15:06:00,
2013-10-20 11:12:00,-999.9,-99.9,29.82,North,32767,-999.0,0.0,255,-99.99,,,0.04,Wunderground v.1.15,2013-10-20 15:12:00,
2013-10-20 11:17:00,-999.9,-99.9,29.82,North,32767,-999.0,0.0,255,-99.99,,,0.04,Wunderground v.1.15,2013-10-20 15:17:00,
2013-10-20 11:22:00,-999.9,-99.9,29.82,North,32767,-999.0,0.0,255,-99.99,,,0.04,Wunderground v.1.15,2013-10-20 15:22:00,
2013-10-20 11:27:00,-999.9,-99.9,29.82,North,32767,-999.0,0.0,255,-99.99,,,0.04,Wunderground v.1.15,2013-10-20 15:27:00,
2013-10-20 11:32:00,-999.9,-99.9,29.82,North,32767,-999.0,0.0,255,-99.99,,,0.04,Wunderground v.1.15,2013-10-20 15:32:00,
2013-10-20 11:38:00,-999.9,-99.9,29.82,North,32767,-999.0,0.0,255,-99.99,,,0.04,Wunderground v.1.15,2013-10-20 15:38:00,
2013-10-20 11:43:00,-999.9,-99.9,29.82,North,32767,-999.0,0.0,255,-99.99,,,0.04,Wunderground v.1.15,2013-10-20 15:43:00,
2013-10-20 11:48:00,53.6,53.6,29.82,SE,144,0.0,0.0,100,0.00,,,0.04,Wunderground v.1.15,2013-10-20 15:48:00,
2013-10-20 11:55:00,53.9,52.5,29.82,SSE,151,1.0,6.0,95,0.00,,,0.04,Wunderground v.1.15,2013-10-20 15:55:00,
2013-10-20 12:00:00,53.9,51.9,29.82,South,179,2.0,6.0,93,0.00,,,0.04,Wunderground v.1.15,2013-10-20 16:00:00,
2013-10-20 12:05:00,54.1,54.1,29.82,SSE,167,1.0,3.0,100,0.00,,,0.04,Wunderground v.1.15,2013-10-20 16:05:00,
2013-10-20 12:11:00,53.9,53.3,29.82,South,186,1.0,2.0,98,0.00,,,0.04,Wunderground v.1.15,2013-10-20 16:11:00,
2013-10-20 12:17:00,53.9,51.6,29.82,South,186,1.0,3.0,92,0.00,,,0.04,Wunderground v.1.15,2013-10-20 16:17:00,
2013-10-20 12:22:00,54.2,50.4,29.82,SSE,148,1.0,3.0,87,0.00,,,0.04,Wunderground v.1.15,2013-10-20 16:22:00,
2013-10-20 12:28:00,54.2,49.1,29.82,West,268,1.0,3.0,83,0.00,,,0.04,Wunderground v.1.15,2013-10-20 16:28:00,
2013-10-20 12:33:00,54.5,50.4,29.82,South,184,1.0,3.0,86,0.00,,,0.04,Wunderground v.1.15,2013-10-20 16:33:00,
2013-10-20 12:36:00,54.7,49.3,29.82,South,184,1.0,3.0,82,0.00,,,0.04,Wunderground v.1.15,2013-10-20 16:36:00,
2013-10-20 12:41:00,54.8,48.4,29.82,South,191,1.0,1.0,79,0.00,,,0.04,Wunderground v.1.15,2013-10-20 16:41:00,
2013-10-20 12:47:00,55.1,52.2,29.82,East,82,1.0,1.0,90,0.00,,,0.04,Wunderground v.1.15,2013-10-20 16:47:00,
2013-10-20 12:52:00,55.3,49.6,29.82,North,11,1.0,1.0,81,0.00,,,0.04,Wunderground v.1.15,2013-10-20 16:52:00,
2013-10-20 12:58:00,55.3,48.9,29.82,South,176,0.0,2.0,79,0.00,,,0.04,Wunderground v.1.15,2013-10-20 16:58:00,
2013-10-20 13:03:00,55.3,47.9,29.82,South,186,0.0,2.0,76,0.00,,,0.04,Wunderground v.1.15,2013-10-20 17:03:00,
2013-10-20 13:10:00,55.3,47.5,29.82,SSW,210,1.0,11.0,75,0.00,,,0.04,Wunderground v.1.15,2013-10-20 17:10:00,
2013-10-20 13:15:00,55.3,48.6,29.81,SW,220,1.0,2.0,78,0.00,,,0.04,Wunderground v.1.15,2013-10-20 17:15:00,
2013-10-20 13:20:00,55.1,47.0,29.81,WSW,248,1.0,4.0,74,0.00,,,0.04,Wunderground v.1.15,2013-10-20 17:20:00,
2013-10-20 13:26:00,55.3,48.9,29.81,WSW,248,1.0,3.0,79,0.00,,,0.04,Wunderground v.1.15,2013-10-20 17:26:00,
2013-10-20 13:31:00,55.4,48.7,29.80,WSW,248,1.0,1.0,78,0.00,,,0.04,Wunderground v.1.15,2013-10-20 17:31:00,
2013-10-20 13:37:00,55.6,46.0,29.80,SSW,205,1.0,2.0,70,0.00,,,0.04,Wunderground v.1.15,2013-10-20 17:37:00,
2013-10-20 13:42:00,55.9,46.3,29.80,SSW,206,1.0,2.0,70,0.00,,,0.04,Wunderground v.1.15,2013-10-20 17:42:00,
2013-10-20 13:47:00,56.0,45.2,29.81,WSW,243,1.0,5.0,67,0.00,,,0.04,Wunderground v.1.15,2013-10-20 17:47:00,
2013-10-20 13:53:00,56.3,45.1,29.81,South,186,1.0,2.0,66,0.00,,,0.04,Wunderground v.1.15,2013-10-20 17:53:00,
2013-10-20 13:58:00,56.5,45.7,29.81,South,178,1.0,2.0,67,0.00,,,0.04,Wunderground v.1.15,2013-10-20 17:58:00,
2013-10-20 14:05:00,56.7,45.5,29.80,South,175,1.0,6.0,66,0.00,,,0.04,Wunderground v.1.15,2013-10-20 18:05:00,
2013-10-20 14:10:00,57.0,45.3,29.80,South,175,1.0,6.0,65,0.00,,,0.04,Wunderground v.1.15,2013-10-20 18:10:00,
2013-10-20 14:15:00,57.0,45.7,29.78,South,169,0.0,3.0,66,0.00,,,0.04,Wunderground v.1.15,2013-10-20 18:15:00,
2013-10-20 14:21:00,57.0,46.9,29.78,South,169,0.0,0.0,69,0.00,,,0.04,Wunderground v.1.15,2013-10-20 18:21:00,
2013-10-20 14:26:00,57.0,44.9,29.78,South,169,0.0,0.0,64,0.00,,,0.04,Wunderground v.1.15,2013-10-20 18:26:00,
2013-10-20 14:32:00,57.0,44.5,29.78,South,169,0.0,0.0,63,0.00,,,0.04,Wunderground v.1.15,2013-10-20 18:32:00,
2013-10-20 14:37:00,57.2,45.5,29.78,South,169,0.0,2.0,65,0.00,,,0.04,Wunderground v.1.15,2013-10-20 18:37:00,
2013-10-20 14:42:00,57.5,46.6,29.78,SSE,168,0.0,0.0,67,0.00,,,0.04,Wunderground v.1.15,2013-10-20 18:42:00,
2013-10-20 14:48:00,57.6,44.2,29.76,ENE,65,0.0,3.0,61,0.00,,,0.04,Wunderground v.1.15,2013-10-20 18:48:00,
2013-10-20 14:55:00,58.0,45.9,29.76,ENE,65,0.0,0.0,64,0.00,,,0.04,Wunderground v.1.15,2013-10-20 18:55:00,
2013-10-20 15:00:00,58.3,46.2,29.76,ENE,64,0.0,2.0,64,0.00,,,0.04,Wunderground v.1.15,2013-10-20 19:00:00,
2013-10-20 15:06:00,58.4,45.8,29.76,ENE,64,0.0,7.0,63,0.00,,,0.04,Wunderground v.1.15,2013-10-20 19:06:00,
2013-10-20 15:11:00,58.7,46.5,29.76,ENE,65,0.0,0.0,64,0.00,,,0.04,Wunderground v.1.15,2013-10-20 19:11:00,
2013-10-20 15:16:00,58.9,44.1,29.76,ENE,75,1.0,4.0,58,0.00,,,0.04,Wunderground v.1.15,2013-10-20 19:16:00,
2013-10-20 15:21:00,58.9,45.5,29.76,ENE,78,3.0,3.0,61,0.00,,,0.04,Wunderground v.1.15,2013-10-20 19:21:00,
2013-10-20 15:27:00,58.9,44.1,29.76,ENE,68,2.0,6.0,58,0.00,,,0.04,Wunderground v.1.15,2013-10-20 19:27:00,
2013-10-20 15:32:00,58.9,45.5,29.75,East,79,2.0,2.0,61,0.00,,,0.04,Wunderground v.1.15,2013-10-20 19:32:00,
2013-10-20 15:39:00,58.7,45.3,29.75,ENE,72,1.0,2.0,61,0.00,,,0.04,Wunderground v.1.15,2013-10-20 19:39:00,
2013-10-20 15:44:00,58.7,45.3,29.75,East,80,1.0,5.0,61,0.00,,,0.04,Wunderground v.1.15,2013-10-20 19:44:00,
2013-10-20 15:49:00,58.4,46.3,29.75,ENE,72,2.0,5.0,64,0.00,,,0.04,Wunderground v.1.15,2013-10-20 19:49:00,
2013-10-20 15:54:00,58.3,44.0,29.75,ENE,73,1.0,4.0,59,0.00,,,0.04,Wunderground v.1.15,2013-10-20 19:54:00,
2013-10-20 16:00:00,58.0,46.7,29.74,ENE,72,1.0,1.0,66,0.00,,,0.04,Wunderground v.1.15,2013-10-20 20:00:00,
2013-10-20 16:06:00,57.6,46.3,29.74,ENE,72,1.0,6.0,66,0.00,,,0.04,Wunderground v.1.15,2013-10-20 20:06:00,
2013-10-20 16:11:00,57.5,46.2,29.74,ENE,72,0.0,0.0,66,0.00,,,0.04,Wunderground v.1.15,2013-10-20 20:11:00,
2013-10-20 16:17:00,57.5,47.8,29.74,ENE,66,1.0,4.0,70,0.00,,,0.04,Wunderground v.1.15,2013-10-20 20:17:00,
2013-10-20 16:22:00,57.5,47.4,29.74,ENE,68,1.0,2.0,69,0.00,,,0.04,Wunderground v.1.15,2013-10-20 20:22:00,
2013-10-20 16:27:00,57.5,47.0,29.74,ENE,69,1.0,2.0,68,0.00,,,0.04,Wunderground v.1.15,2013-10-20 20:27:00,
2013-10-20 16:33:00,57.5,48.2,29.74,ENE,69,0.0,1.0,71,0.00,,,0.04,Wunderground v.1.15,2013-10-20 20:33:00,
2013-10-20 16:39:00,57.6,49.4,29.74,ENE,69,0.0,1.0,74,0.00,,,0.04,Wunderground v.1.15,2013-10-20 20:39:00,
2013-10-20 16:44:00,57.6,47.5,29.74,East,92,0.0,3.0,69,0.00,,,0.04,Wunderground v.1.15,2013-10-20 20:44:00,
2013-10-20 16:49:00,57.8,46.5,29.73,ENE,78,1.0,6.0,66,0.00,,,0.04,Wunderground v.1.15,2013-10-20 20:49:00,
2013-10-20 16:55:00,58.0,49.0,29.73,ENE,68,2.0,2.0,72,0.00,,,0.04,Wunderground v.1.15,2013-10-20 20:55:00,
2013-10-20 17:00:00,57.6,50.8,29.74,ENE,68,1.0,1.0,78,0.00,,,0.04,Wunderground v.1.15,2013-10-20 21:00:00,
2013-10-20 17:06:00,57.5,48.2,29.74,ENE,72,1.0,6.0,71,0.00,,,0.04,Wunderground v.1.15,2013-10-20 21:06:00,
2013-10-20 17:12:00,57.5,49.6,29.74,ENE,72,1.0,1.0,75,0.00,,,0.04,Wunderground v.1.15,2013-10-20 21:12:00,
2013-10-20 17:17:00,57.3,48.3,29.73,East,86,0.0,2.0,72,0.00,,,0.04,Wunderground v.1.15,2013-10-20 21:17:00,
2013-10-20 17:23:00,57.5,48.9,29.73,ENE,72,1.0,1.0,73,0.00,,,0.04,Wunderground v.1.15,2013-10-20 21:23:00,
2013-10-20 17:29:00,57.6,48.6,29.73,ENE,69,1.0,3.0,72,0.00,,,0.04,Wunderground v.1.15,2013-10-20 21:29:00,
2013-10-20 17:34:00,57.8,49.2,29.73,ENE,72,1.0,2.0,73,0.00,,,0.04,Wunderground v.1.15,2013-10-20 21:34:00,
2013-10-20 17:39:00,57.6,48.6,29.73,ENE,72,0.0,2.0,72,0.00,,,0.04,Wunderground v.1.15,2013-10-20 21:39:00,
2013-10-20 17:44:00,57.6,48.6,29.73,ENE,72,0.0,2.0,72,0.00,,,0.04,Wunderground v.1.15,2013-10-20 21:44:00,
2013-10-20 17:49:00,57.6,48.6,29.72,ENE,73,1.0,2.0,72,0.00,,,0.04,Wunderground v.1.15,2013-10-20 21:49:00,
2013-10-20 17:55:00,57.6,50.4,29.72,ENE,69,1.0,2.0,77,0.00,,,0.04,Wunderground v.1.15,2013-10-20 21:55:00,
2013-10-20 18:00:00,57.6,50.1,29.71,East,86,1.0,2.0,76,0.00,,,0.04,Wunderground v.1.15,2013-10-20 22:00:00,
2013-10-20 18:06:00,57.3,52.2,29.71,East,85,1.0,7.0,83,0.00,,,0.04,Wunderground v.1.15,2013-10-20 22:06:00,
2013-10-20 18:12:00,57.2,52.1,29.71,East,85,1.0,2.0,83,0.00,,,0.04,Wunderground v.1.15,2013-10-20 22:12:00,
2013-10-20 18:17:00,57.2,51.1,29.70,East,85,1.0,2.0,80,0.00,,,0.04,Wunderground v.1.15,2013-10-20 22:17:00,
2013-10-20 18:23:00,57.0,50.2,29.70,ENE,71,0.0,1.0,78,0.00,,,0.04,Wunderground v.1.15,2013-10-20 22:23:00,
2013-10-20 18:28:00,56.9,53.7,29.70,ENE,71,0.0,1.0,89,0.00,,,0.04,Wunderground v.1.15,2013-10-20 22:28:00,
2013-10-20 18:34:00,56.7,51.9,29.69,ENE,65,0.0,2.0,84,0.00,,,0.04,Wunderground v.1.15,2013-10-20 22:34:00,
2013-10-20 18:39:00,56.6,51.2,29.69,ENE,66,1.0,2.0,82,0.00,,,0.04,Wunderground v.1.15,2013-10-20 22:39:00,
2013-10-20 18:45:00,56.5,52.7,29.69,ENE,68,1.0,3.0,87,0.00,,,0.04,Wunderground v.1.15,2013-10-20 22:45:00,
2013-10-20 18:50:00,56.2,51.1,29.69,ENE,68,1.0,1.0,83,0.00,,,0.04,Wunderground v.1.15,2013-10-20 22:50:00,
2013-10-20 18:56:00,56.2,51.1,29.69,ENE,76,1.0,5.0,83,0.00,,,0.04,Wunderground v.1.15,2013-10-20 22:56:00,
2013-10-20 19:01:00,56.5,50.7,29.68,ENE,66,2.0,5.0,81,0.00,,,0.04,Wunderground v.1.15,2013-10-20 23:01:00,
2013-10-20 19:07:00,56.2,53.3,29.68,ENE,75,1.0,5.0,90,0.00,,,0.04,Wunderground v.1.15,2013-10-20 23:07:00,
2013-10-20 19:13:00,56.0,52.2,29.68,East,83,1.0,1.0,87,0.00,,,0.04,Wunderground v.1.15,2013-10-20 23:13:00,
2013-10-20 19:18:00,55.9,51.8,29.68,ENE,72,1.0,1.0,86,0.00,,,0.04,Wunderground v.1.15,2013-10-20 23:18:00,
2013-10-20 19:24:00,55.7,53.1,29.68,ENE,73,1.0,2.0,91,0.00,,,0.04,Wunderground v.1.15,2013-10-20 23:24:00,
2013-10-20 19:30:00,55.9,51.5,29.68,East,80,1.0,3.0,85,0.00,,,0.04,Wunderground v.1.15,2013-10-20 23:30:00,
2013-10-20 19:35:00,55.9,52.4,29.68,ENE,73,2.0,2.0,88,0.00,,,0.04,Wunderground v.1.15,2013-10-20 23:35:00,
2013-10-20 19:41:00,56.0,50.9,29.68,ENE,76,2.0,2.0,83,0.00,,,0.04,Wunderground v.1.15,2013-10-20 23:41:00,
2013-10-20 19:46:00,56.2,52.1,29.68,ENE,76,2.0,3.0,86,0.00,,,0.04,Wunderground v.1.15,2013-10-20 23:46:00,
2013-10-20 19:52:00,56.3,51.5,29.68,ENE,75,1.0,2.0,84,0.00,,,0.04,Wunderground v.1.15,2013-10-20 23:52:00,
2013-10-20 19:57:00,56.5,51.1,29.68,East,86,1.0,2.0,82,0.00,,,0.04,Wunderground v.1.15,2013-10-20 23:57:00,
2013-10-20 20:03:00,56.7,50.6,29.68,East,79,1.0,5.0,80,0.00,,,0.04,Wunderground v.1.15,2013-10-21 00:03:00,
2013-10-20 20:08:00,57.2,51.8,29.68,ENE,72,1.0,5.0,82,0.00,,,0.04,Wunderground v.1.15,2013-10-21 00:08:00,
2013-10-20 20:14:00,57.2,51.4,29.68,ENE,76,1.0,2.0,81,0.00,,,0.04,Wunderground v.1.15,2013-10-21 00:14:00,
2013-10-20 20:19:00,57.3,49.4,29.69,East,86,1.0,2.0,75,0.00,,,0.04,Wunderground v.1.15,2013-10-21 00:19:00,
2013-10-20 20:24:00,57.5,51.7,29.69,ENE,78,1.0,2.0,81,0.00,,,0.04,Wunderground v.1.15,2013-10-21 00:24:00,
2013-10-20 20:30:00,57.3,51.5,29.68,ENE,68,1.0,7.0,81,0.00,,,0.04,Wunderground v.1.15,2013-10-21 00:30:00,
2013-10-20 20:35:00,57.5,50.7,29.68,ENE,71,2.0,7.0,78,0.00,,,0.04,Wunderground v.1.15,2013-10-21 00:35:00,
2013-10-20 20:41:00,57.8,48.8,29.68,East,83,2.0,4.0,72,0.00,,,0.04,Wunderground v.1.15,2013-10-21 00:41:00,
2013-10-20 20:47:00,58.1,50.2,29.68,NNE,23,2.0,4.0,75,0.00,,,0.04,Wunderground v.1.15,2013-10-21 00:47:00,
2013-10-20 20:52:00,58.1,50.9,29.68,East,88,1.0,2.0,77,0.00,,,0.04,Wunderground v.1.15,2013-10-21 00:52:00,
2013-10-20 20:58:00,58.4,49.4,29.68,ENE,76,2.0,7.0,72,0.00,,,0.04,Wunderground v.1.15,2013-10-21 00:58:00,
2013-10-20 21:04:00,58.6,49.6,29.68,East,89,2.0,7.0,72,0.00,,,0.04,Wunderground v.1.15,2013-10-21 01:04:00,
2013-10-20 21:09:00,58.6,50.0,29.68,East,100,2.0,7.0,73,0.00,,,0.04,Wunderground v.1.15,2013-10-21 01:09:00,
2013-10-20 21:15:00,58.9,47.6,29.67,East,97,3.0,5.0,66,0.00,,,0.04,Wunderground v.1.15,2013-10-21 01:15:00,
2013-10-20 21:21:00,58.9,49.1,29.67,East,95,2.0,2.0,70,0.00,,,0.04,Wunderground v.1.15,2013-10-21 01:21:00,
2013-10-20 21:26:00,59.0,49.6,29.67,East,88,2.0,5.0,71,0.00,,,0.04,Wunderground v.1.15,2013-10-21 01:26:00,
2013-10-20 21:32:00,59.0,48.4,29.68,East,85,2.0,2.0,68,0.00,,,0.04,Wunderground v.1.15,2013-10-21 01:32:00,
2013-10-20 21:37:00,59.0,50.0,29.68,ESE,106,2.0,5.0,72,0.00,,,0.04,Wunderground v.1.15,2013-10-21 01:37:00,
2013-10-20 21:42:00,59.3,47.9,29.68,East,97,2.0,5.0,66,0.00,,,0.04,Wunderground v.1.15,2013-10-21 01:42:00,
2013-10-20 21:48:00,59.3,49.1,29.69,East,86,2.0,5.0,69,0.00,,,0.04,Wunderground v.1.15,2013-10-21 01:48:00,
2013-10-20 21:53:00,59.0,50.0,29.69,ENE,58,2.0,2.0,72,0.00,,,0.04,Wunderground v.1.15,2013-10-21 01:53:00,
2013-10-20 21:59:00,58.9,49.5,29.69,East,89,1.0,3.0,71,0.00,,,0.04,Wunderground v.1.15,2013-10-21 01:59:00,
2013-10-20 22:04:00,58.9,51.0,29.69,East,88,1.0,8.0,75,0.00,,,0.04,Wunderground v.1.15,2013-10-21 02:04:00,
2013-10-20 22:10:00,58.7,51.9,29.69,West,281,2.0,8.0,78,0.00,,,0.04,Wunderground v.1.15,2013-10-21 02:10:00,
2013-10-20 22:16:00,58.6,51.4,29.70,West,281,0.0,1.0,77,0.00,,,0.04,Wunderground v.1.15,2013-10-21 02:16:00,
2013-10-20 22:21:00,58.3,50.8,29.70,East,85,1.0,1.0,76,0.00,,,0.04,Wunderground v.1.15,2013-10-21 02:21:00,
2013-10-20 22:27:00,57.8,52.3,29.70,East,82,1.0,2.0,82,0.00,,,0.04,Wunderground v.1.15,2013-10-21 02:27:00,
2013-10-20 22:32:00,57.6,52.8,29.70,SE,126,1.0,1.0,84,0.00,,,0.04,Wunderground v.1.15,2013-10-21 02:32:00,
2013-10-20 22:38:00,57.8,51.0,29.70,ENE,78,1.0,5.0,78,0.00,,,0.04,Wunderground v.1.15,2013-10-21 02:38:00,
2013-10-20 22:43:00,58.0,50.8,29.70,East,96,2.0,2.0,77,0.00,,,0.04,Wunderground v.1.15,2013-10-21 02:43:00,
2013-10-20 22:49:00,58.3,48.9,29.71,SSE,165,1.0,2.0,71,0.00,,,0.04,Wunderground v.1.15,2013-10-21 02:49:00,
2013-10-20 22:54:00,58.1,53.6,29.71,ENE,58,1.0,2.0,85,0.00,,,0.04,Wunderground v.1.15,2013-10-21 02:54:00,
2013-10-20 22:59:00,57.0,55.0,29.72,SSW,213,0.0,3.0,93,0.00,,,0.04,Wunderground v.1.15,2013-10-21 02:59:00,
2013-10-20 23:05:00,56.3,55.7,29.72,SSW,193,0.0,13.0,98,0.00,,,0.05,Wunderground v.1.15,2013-10-21 03:05:00,
2013-10-20 23:11:00,55.6,55.6,29.72,SSW,196,0.0,3.0,100,0.00,,,0.05,Wunderground v.1.15,2013-10-21 03:11:00,
2013-10-20 23:16:00,55.4,53.4,29.72,NE,49,0.0,3.0,93,0.00,,,0.05,Wunderground v.1.15,2013-10-21 03:16:00,
2013-10-20 23:22:00,55.3,52.7,29.72,East,86,0.0,0.0,91,0.00,,,0.05,Wunderground v.1.15,2013-10-21 03:22:00,
2013-10-20 23:27:00,55.6,51.5,29.72,ESE,117,0.0,1.0,86,0.00,,,0.05,Wunderground v.1.15,2013-10-21 03:27:00,
2013-10-20 23:33:00,55.7,53.4,29.72,ENE,72,0.0,0.0,92,0.00,,,0.05,Wunderground v.1.15,2013-10-21 03:33:00,
2013-10-20 23:39:00,56.0,52.5,29.72,SSE,158,0.0,2.0,88,0.00,,,0.05,Wunderground v.1.15,2013-10-21 03:39:00,
2013-10-20 23:44:00,56.3,51.5,29.72,South,171,1.0,3.0,84,0.00,,,0.05,Wunderground v.1.15,2013-10-21 03:44:00,
2013-10-20 23:50:00,56.5,50.7,29.72,East,80,1.0,3.0,81,0.00,,,0.05,Wunderground v.1.15,2013-10-21 03:50:00,
2013-10-20 23:55:00,56.5,49.4,29.72,ENE,69,0.0,1.0,77,0.00,,,0.05,Wunderground v.1.15,2013-10-21 03:55:00,